MMHO/HMO METAR and TAF weather

Enter ICAO airport designator
Station Type Date Time Source
MMHO METAR 2022/01/25 04:40 UTC NOAA

MMHO 250440Z 00000KT 10SM SKC 14/04 A2999 RMK HZY


Station Type Date Time Source
MMHO Decoded METAR 2022/01/25 04:40 UTC NOAA

Hermosillo, Son., Mexico (MMHO) 29-04N 110-57W
Jan 24, 2022 - 11:40 PM EST / 2022.01.25 0440 UTC
Wind: Calm:0
Visibility: 10 mile(s):0
Sky conditions: clear
Temperature: 57 F (14 C)
Dew Point: 39 F (4 C)
Relative Humidity: 50%
Pressure (altimeter): 29.99 in. Hg (1015 hPa)
ob: MMHO 250440Z 00000KT 10SM SKC 14/04 A2999 RMK HZY
cycle: 4

Station Type Date Time Source
MMHO TAF 2022/01/25 06:10 UTC NOAA

TAF MMHO 250503Z 2506/2606 00000KT P6SM SKC
FM251800 26010KT P6SM SKC
FM260300 23005KT P6SM SKC

Example: see airport list